sensor_id;sensor_type;location;lat;lon;timestamp;pressure;altitude;pressure_sealevel;temperature;humidity
23170;BME280;11753;43.144;24.714;2023-04-20T00:00:52;99208.25;;;12.12;81.29
23170;BME280;11753;43.144;24.714;2023-04-20T00:01:54;99213.50;;;12.12;81.25
23170;BME280;11753;43.144;24.714;2023-04-20T00:02:56;99218.78;;;12.12;81.48
23170;BME280;11753;43.144;24.714;2023-04-20T00:03:57;99217.03;;;12.05;81.38
23170;BME280;11753;43.144;24.714;2023-04-20T00:04:59;99211.91;;;12.03;81.61
23170;BME280;11753;43.144;24.714;2023-04-20T00:06:00;99215.88;;;12.07;80.90
23170;BME280;11753;43.144;24.714;2023-04-20T00:07:01;99211.44;;;12.00;80.65
23170;BME280;11753;43.144;24.714;2023-04-20T00:08:01;99213.59;;;11.96;80.91
23170;BME280;11753;43.144;24.714;2023-04-20T00:09:02;99210.31;;;11.94;80.84
23170;BME280;11753;43.144;24.714;2023-04-20T00:10:04;99212.28;;;12.00;80.84
23170;BME280;11753;43.144;24.714;2023-04-20T00:11:05;99208.16;;;11.98;80.45
23170;BME280;11753;43.144;24.714;2023-04-20T00:12:06;99211.44;;;12.00;80.46
23170;BME280;11753;43.144;24.714;2023-04-20T00:13:06;99205.03;;;11.94;80.51
23170;BME280;11753;43.144;24.714;2023-04-20T00:14:07;99210.97;;;11.96;80.57
23170;BME280;11753;43.144;24.714;2023-04-20T00:15:08;99209.31;;;11.95;80.44
23170;BME280;11753;43.144;24.714;2023-04-20T00:16:09;99206.69;;;11.95;80.35
23170;BME280;11753;43.144;24.714;2023-04-20T00:17:10;99207.00;;;12.00;79.78
23170;BME280;11753;43.144;24.714;2023-04-20T00:18:11;99203.41;;;11.93;79.38
23170;BME280;11753;43.144;24.714;2023-04-20T00:19:11;99204.06;;;11.95;79.44
23170;BME280;11753;43.144;24.714;2023-04-20T00:20:12;99195.81;;;11.90;79.28
23170;BME280;11753;43.144;24.714;2023-04-20T00:21:14;99203.56;;;11.92;79.44
23170;BME280;11753;43.144;24.714;2023-04-20T00:22:16;99201.59;;;11.94;79.55
23170;BME280;11753;43.144;24.714;2023-04-20T00:23:16;99192.69;;;11.95;79.47
23170;BME280;11753;43.144;24.714;2023-04-20T00:24:17;99189.38;;;11.93;78.51
23170;BME280;11753;43.144;24.714;2023-04-20T00:25:19;99190.53;;;11.90;79.09
23170;BME280;11753;43.144;24.714;2023-04-20T00:26:19;99191.59;;;11.81;78.97
23170;BME280;11753;43.144;24.714;2023-04-20T00:27:20;99189.91;;;11.88;78.38
23170;BME280;11753;43.144;24.714;2023-04-20T00:28:21;99193.53;;;11.87;78.49
23170;BME280;11753;43.144;24.714;2023-04-20T00:29:22;99194.22;;;11.81;79.16
23170;BME280;11753;43.144;24.714;2023-04-20T00:30:23;99194.88;;;11.83;79.30
23170;BME280;11753;43.144;24.714;2023-04-20T00:31:24;99196.03;;;11.80;79.41
23170;BME280;11753;43.144;24.714;2023-04-20T00:32:24;99191.88;;;11.78;80.21
23170;BME280;11753;43.144;24.714;2023-04-20T00:33:25;99196.69;;;11.74;80.51
23170;BME280;11753;43.144;24.714;2023-04-20T00:34:26;99189.94;;;11.72;80.66
23170;BME280;11753;43.144;24.714;2023-04-20T00:35:26;99197.97;;;11.78;80.81
23170;BME280;11753;43.144;24.714;2023-04-20T00:36:29;99199.13;;;11.84;80.77
23170;BME280;11753;43.144;24.714;2023-04-20T00:37:30;99195.50;;;11.85;80.99
23170;BME280;11753;43.144;24.714;2023-04-20T00:38:31;99198.69;;;11.80;81.70
23170;BME280;11753;43.144;24.714;2023-04-20T00:39:32;99188.59;;;11.76;82.38
23170;BME280;11753;43.144;24.714;2023-04-20T00:40:33;99188.13;;;11.72;82.95
23170;BME280;11753;43.144;24.714;2023-04-20T00:41:35;99191.91;;;11.70;83.88
23170;BME280;11753;43.144;24.714;2023-04-20T00:42:36;99185.19;;;11.67;84.60
23170;BME280;11753;43.144;24.714;2023-04-20T00:43:48;99190.09;;;11.70;84.99
23170;BME280;11753;43.144;24.714;2023-04-20T00:44:49;99191.28;;;11.68;85.55
23170;BME280;11753;43.144;24.714;2023-04-20T00:45:50;99180.13;;;11.57;85.33
23170;BME280;11753;43.144;24.714;2023-04-20T00:46:53;99178.44;;;11.56;85.83
23170;BME280;11753;43.144;24.714;2023-04-20T00:47:56;99174.16;;;11.55;86.43
23170;BME280;11753;43.144;24.714;2023-04-20T00:48:57;99181.75;;;11.58;86.43
23170;BME280;11753;43.144;24.714;2023-04-20T00:49:58;99176.31;;;11.60;86.65
23170;BME280;11753;43.144;24.714;2023-04-20T00:51:00;99181.56;;;11.60;87.00
23170;BME280;11753;43.144;24.714;2023-04-20T00:52:01;99170.22;;;11.60;87.21
23170;BME280;11753;43.144;24.714;2023-04-20T00:53:03;99175.56;;;11.43;87.80
23170;BME280;11753;43.144;24.714;2023-04-20T00:54:04;99175.84;;;11.48;87.95
23170;BME280;11753;43.144;24.714;2023-04-20T00:55:05;99176.84;;;11.47;87.90
23170;BME280;11753;43.144;24.714;2023-04-20T00:56:07;99179.97;;;11.51;87.75
23170;BME280;11753;43.144;24.714;2023-04-20T00:57:12;99177.16;;;11.52;87.64
23170;BME280;11753;43.144;24.714;2023-04-20T00:58:13;99175.16;;;11.54;87.60
23170;BME280;11753;43.144;24.714;2023-04-20T00:59:14;99180.13;;;11.57;87.58
23170;BME280;11753;43.144;24.714;2023-04-20T01:00:16;99180.13;;;11.57;87.62
23170;BME280;11753;43.144;24.714;2023-04-20T01:01:17;99180.78;;;11.51;88.26
23170;BME280;11753;43.144;24.714;2023-04-20T01:02:19;99180.78;;;11.51;88.49
23170;BME280;11753;43.144;24.714;2023-04-20T01:03:20;99177.50;;;11.41;88.76
23170;BME280;11753;43.144;24.714;2023-04-20T01:04:22;99175.69;;;11.42;89.07
23170;BME280;11753;43.144;24.714;2023-04-20T01:05:23;99174.03;;;11.49;89.16
23170;BME280;11753;43.144;24.714;2023-04-20T01:06:24;99183.09;;;11.46;89.28
23170;BME280;11753;43.144;24.714;2023-04-20T01:07:25;99178.47;;;11.48;89.12
23170;BME280;11753;43.144;24.714;2023-04-20T01:08:26;99181.47;;;11.45;89.28
23170;BME280;11753;43.144;24.714;2023-04-20T01:09:28;99177.50;;;11.41;89.65
23170;BME280;11753;43.144;24.714;2023-04-20T01:10:29;99177.88;;;11.30;89.93
23170;BME280;11753;43.144;24.714;2023-04-20T01:11:30;99176.56;;;11.26;90.19
23170;BME280;11753;43.144;24.714;2023-04-20T01:12:31;99173.75;;;11.27;90.23
23170;BME280;11753;43.144;24.714;2023-04-20T01:13:32;99176.91;;;11.23;90.32
23170;BME280;11753;43.144;24.714;2023-04-20T01:14:33;99172.78;;;11.20;90.79
23170;BME280;11753;43.144;24.714;2023-04-20T01:15:34;99171.66;;;11.23;90.51
23170;BME280;11753;43.144;24.714;2023-04-20T01:16:35;99164.72;;;11.22;90.77
23170;BME280;11753;43.144;24.714;2023-04-20T01:17:36;99170.66;;;11.24;90.72
23170;BME280;11753;43.144;24.714;2023-04-20T01:18:49;99176.91;;;11.23;90.75
23170;BME280;11753;43.144;24.714;2023-04-20T01:19:50;99172.94;;;11.27;90.33
23170;BME280;11753;43.144;24.714;2023-04-20T01:20:52;99170.13;;;11.28;90.44
23170;BME280;11753;43.144;24.714;2023-04-20T01:21:53;99165.72;;;11.29;90.41
23170;BME280;11753;43.144;24.714;2023-04-20T01:22:54;99163.06;;;11.29;90.10
23170;BME280;11753;43.144;24.714;2023-04-20T01:23:55;99168.34;;;11.29;90.03
23170;BME280;11753;43.144;24.714;2023-04-20T01:24:55;99163.72;;;11.31;90.12
23170;BME280;11753;43.144;24.714;2023-04-20T01:25:56;99166.66;;;11.28;90.08
23170;BME280;11753;43.144;24.714;2023-04-20T01:26:58;99168.47;;;11.27;89.88
23170;BME280;11753;43.144;24.714;2023-04-20T01:27:59;99170.31;;;11.27;90.07
23170;BME280;11753;43.144;24.714;2023-04-20T01:29:01;99165.84;;;11.27;89.90
23170;BME280;11753;43.144;24.714;2023-04-20T01:30:02;99164.72;;;11.22;90.25
23170;BME280;11753;43.144;24.714;2023-04-20T01:31:05;99165.53;;;11.14;90.57
23170;BME280;11753;43.144;24.714;2023-04-20T01:32:07;99169.84;;;11.15;90.74
23170;BME280;11753;43.144;24.714;2023-04-20T01:33:07;99169.03;;;11.15;90.59
23170;BME280;11753;43.144;24.714;2023-04-20T01:34:08;99168.69;;;11.10;90.79
23170;BME280;11753;43.144;24.714;2023-04-20T01:35:12;99171.34;;;11.10;90.76
23170;BME280;11753;43.144;24.714;2023-04-20T01:36:13;99168.84;;;11.16;90.78
23170;BME280;11753;43.144;24.714;2023-04-20T01:37:14;99164.88;;;11.20;90.28
23170;BME280;11753;43.144;24.714;2023-04-20T01:38:20;99165.41;;;11.08;90.60
23170;BME280;11753;43.144;24.714;2023-04-20T01:39:21;99164.44;;;11.00;91.05
23170;BME280;11753;43.144;24.714;2023-04-20T01:40:22;99165.75;;;11.05;91.10
23170;BME280;11753;43.144;24.714;2023-04-20T01:41:23;99170.81;;;11.06;90.98
23170;BME280;11753;43.144;24.714;2023-04-20T01:42:25;99171.03;;;10.96;91.29
23170;BME280;11753;43.144;24.714;2023-04-20T01:43:26;99170.66;;;10.99;91.48
23170;BME280;11753;43.144;24.714;2023-04-20T01:44:27;99162.94;;;10.98;91.64
23170;BME280;11753;43.144;24.714;2023-04-20T01:45:28;99166.72;;;11.03;91.39
23170;BME280;11753;43.144;24.714;2023-04-20T01:46:29;99161.81;;;11.00;91.32
23170;BME280;11753;43.144;24.714;2023-04-20T01:47:31;99162.13;;;10.97;91.36
23170;BME280;11753;43.144;24.714;2023-04-20T01:48:33;99160.13;;;10.99;90.95
23170;BME280;11753;43.144;24.714;2023-04-20T01:49:34;99156.03;;;10.97;91.03
23170;BME280;11753;43.144;24.714;2023-04-20T01:50:35;99160.66;;;10.95;90.77
23170;BME280;11753;43.144;24.714;2023-04-20T01:51:38;99161.34;;;10.81;91.60
23170;BME280;11753;43.144;24.714;2023-04-20T01:52:39;99163.63;;;10.84;91.57
23170;BME280;11753;43.144;24.714;2023-04-20T01:53:40;99157.22;;;10.86;91.51
23170;BME280;11753;43.144;24.714;2023-04-20T01:54:41;99160.31;;;10.90;91.54
23170;BME280;11753;43.144;24.714;2023-04-20T01:55:42;99158.84;;;10.87;91.49
23170;BME280;11753;43.144;24.714;2023-04-20T01:56:43;99158.03;;;10.87;91.71
23170;BME280;11753;43.144;24.714;2023-04-20T01:57:45;99161.31;;;10.89;91.69
23170;BME280;11753;43.144;24.714;2023-04-20T01:58:46;99160.97;;;10.84;91.91
23170;BME280;11753;43.144;24.714;2023-04-20T01:59:47;99159.00;;;10.86;91.95
23170;BME280;11753;43.144;24.714;2023-04-20T02:00:48;99158.00;;;10.79;91.95
23170;BME280;11753;43.144;24.714;2023-04-20T02:01:49;99157.19;;;10.78;92.01
23170;BME280;11753;43.144;24.714;2023-04-20T02:02:50;99162.81;;;10.75;92.06
23170;BME280;11753;43.144;24.714;2023-04-20T02:03:51;99160.00;;;10.77;92.19
23170;BME280;11753;43.144;24.714;2023-04-20T02:04:52;99152.13;;;10.68;92.60
23170;BME280;11753;43.144;24.714;2023-04-20T02:05:53;99157.88;;;10.72;92.77
23170;BME280;11753;43.144;24.714;2023-04-20T02:06:54;99150.94;;;10.63;93.20
23170;BME280;11753;43.144;24.714;2023-04-20T02:07:54;99157.22;;;10.62;93.70
23170;BME280;11753;43.144;24.714;2023-04-20T02:08:55;99147.03;;;10.59;93.82
23170;BME280;11753;43.144;24.714;2023-04-20T02:09:55;99151.94;;;10.62;93.91
23170;BME280;11753;43.144;24.714;2023-04-20T02:10:56;99164.75;;;10.57;94.33
23170;BME280;11753;43.144;24.714;2023-04-20T02:11:57;99150.97;;;10.55;94.41
23170;BME280;11753;43.144;24.714;2023-04-20T02:12:58;99158.69;;;10.56;94.42
23170;BME280;11753;43.144;24.714;2023-04-20T02:13:59;99156.88;;;10.48;94.73
23170;BME280;11753;43.144;24.714;2023-04-20T02:15:00;99159.19;;;10.43;95.23
23170;BME280;11753;43.144;24.714;2023-04-20T02:16:01;99159.50;;;10.40;95.38
23170;BME280;11753;43.144;24.714;2023-04-20T02:17:02;99152.25;;;10.42;95.32
23170;BME280;11753;43.144;24.714;2023-04-20T02:18:03;99161.97;;;10.42;95.57
23170;BME280;11753;43.144;24.714;2023-04-20T02:19:04;99151.94;;;10.45;95.47
23170;BME280;11753;43.144;24.714;2023-04-20T02:20:06;99152.59;;;10.47;95.39
23170;BME280;11753;43.144;24.714;2023-04-20T02:21:10;99152.94;;;10.44;95.38
23170;BME280;11753;43.144;24.714;2023-04-20T02:22:11;99144.53;;;10.49;95.15
23170;BME280;11753;43.144;24.714;2023-04-20T02:23:12;99150.31;;;10.44;95.12
23170;BME280;11753;43.144;24.714;2023-04-20T02:24:13;99156.56;;;10.43;95.20
23170;BME280;11753;43.144;24.714;2023-04-20T02:25:14;99149.31;;;10.37;95.31
23170;BME280;11753;43.144;24.714;2023-04-20T02:26:15;99150.78;;;10.32;95.42
23170;BME280;11753;43.144;24.714;2023-04-20T02:27:16;99148.25;;;10.14;96.28
23170;BME280;11753;43.144;24.714;2023-04-20T02:28:17;99150.75;;;10.15;96.47
23170;BME280;11753;43.144;24.714;2023-04-20T02:29:18;99151.56;;;10.16;96.38
23170;BME280;11753;43.144;24.714;2023-04-20T02:30:19;99154.31;;;10.06;96.78
23170;BME280;11753;43.144;24.714;2023-04-20T02:31:21;99149.38;;;9.95;97.50
23170;BME280;11753;43.144;24.714;2023-04-20T02:32:22;99147.56;;;10.04;97.23
23170;BME280;11753;43.144;24.714;2023-04-20T02:33:22;99152.34;;;10.00;97.58
23170;BME280;11753;43.144;24.714;2023-04-20T02:34:23;99152.34;;;10.00;97.50
23170;BME280;11753;43.144;24.714;2023-04-20T02:35:24;99146.94;;;10.02;97.80
23170;BME280;11753;43.144;24.714;2023-04-20T02:36:25;99158.72;;;9.98;97.80
23170;BME280;11753;43.144;24.714;2023-04-20T02:37:26;99151.84;;;9.97;97.95
23170;BME280;11753;43.144;24.714;2023-04-20T02:38:26;99150.19;;;9.96;98.03
23170;BME280;11753;43.144;24.714;2023-04-20T02:39:27;99157.06;;;9.88;98.31
23170;BME280;11753;43.144;24.714;2023-04-20T02:40:28;99160.69;;;9.87;98.17
23170;BME280;11753;43.144;24.714;2023-04-20T02:41:29;99162.31;;;9.80;98.71
23170;BME280;11753;43.144;24.714;2023-04-20T02:42:30;99155.91;;;9.83;98.86
23170;BME280;11753;43.144;24.714;2023-04-20T02:43:31;99148.66;;;9.85;99.13
23170;BME280;11753;43.144;24.714;2023-04-20T02:44:33;99155.41;;;9.79;99.17
23170;BME280;11753;43.144;24.714;2023-04-20T02:45:34;99157.06;;;9.80;99.19
23170;BME280;11753;43.144;24.714;2023-04-20T02:46:35;99159.34;;;9.83;99.10
23170;BME280;11753;43.144;24.714;2023-04-20T02:47:36;99155.09;;;9.82;99.12
23170;BME280;11753;43.144;24.714;2023-04-20T02:48:37;99156.06;;;9.81;99.35
23170;BME280;11753;43.144;24.714;2023-04-20T02:49:37;99152.09;;;9.77;99.62
23170;BME280;11753;43.144;24.714;2023-04-20T02:50:38;99148.19;;;9.81;99.88
23170;BME280;11753;43.144;24.714;2023-04-20T02:51:38;99160.16;;;9.76;100.00
23170;BME280;11753;43.144;24.714;2023-04-20T02:52:39;99166.22;;;9.76;100.00
23170;BME280;11753;43.144;24.714;2023-04-20T02:53:41;99161.59;;;9.70;100.00
23170;BME280;11753;43.144;24.714;2023-04-20T02:54:41;99157.03;;;9.72;100.00
23170;BME280;11753;43.144;24.714;2023-04-20T02:55:42;99154.69;;;9.69;100.00
23170;BME280;11753;43.144;24.714;2023-04-20T02:56:43;99154.03;;;9.67;100.00
23170;BME280;11753;43.144;24.714;2023-04-20T02:57:44;99160.28;;;9.66;100.00
23170;BME280;11753;43.144;24.714;2023-04-20T02:58:45;99145.50;;;9.65;100.00
23170;BME280;11753;43.144;24.714;2023-04-20T02:59:48;99156.88;;;9.74;100.00
23170;BME280;11753;43.144;24.714;2023-04-20T03:00:49;99149.97;;;9.73;100.00
23170;BME280;11753;43.144;24.714;2023-04-20T03:01:50;99144.72;;;9.73;100.00
23170;BME280;11753;43.144;24.714;2023-04-20T03:02:51;99156.69;;;9.67;100.00
23170;BME280;11753;43.144;24.714;2023-04-20T03:03:52;99148.47;;;9.70;100.00
23170;BME280;11753;43.144;24.714;2023-04-20T03:04:52;99151.09;;;9.70;100.00
23170;BME280;11753;43.144;24.714;2023-04-20T03:05:54;99149.63;;;9.68;100.00
23170;BME280;11753;43.144;24.714;2023-04-20T03:06:55;99163.91;;;9.65;100.00
23170;BME280;11753;43.144;24.714;2023-04-20T03:07:56;99150.06;;;9.63;100.00
23170;BME280;11753;43.144;24.714;2023-04-20T03:08:57;99152.72;;;9.71;100.00
23170;BME280;11753;43.144;24.714;2023-04-20T03:09:58;99155.34;;;9.63;100.00
23170;BME280;11753;43.144;24.714;2023-04-20T03:10:59;99151.69;;;9.56;100.00
23170;BME280;11753;43.144;24.714;2023-04-20T03:12:00;99152.69;;;9.55;100.00
23170;BME280;11753;43.144;24.714;2023-04-20T03:13:02;99149.06;;;9.56;100.00
23170;BME280;11753;43.144;24.714;2023-04-20T03:14:03;99146.31;;;9.57;100.00
23170;BME280;11753;43.144;24.714;2023-04-20T03:15:04;99151.38;;;9.59;100.00
23170;BME280;11753;43.144;24.714;2023-04-20T03:16:08;99150.38;;;9.52;100.00
23170;BME280;11753;43.144;24.714;2023-04-20T03:17:09;99145.28;;;9.50;100.00
23170;BME280;11753;43.144;24.714;2023-04-20T03:18:11;99149.69;;;9.50;100.00
23170;BME280;11753;43.144;24.714;2023-04-20T03:19:12;99153.50;;;9.55;100.00
23170;BME280;11753;43.144;24.714;2023-04-20T03:20:13;99153.66;;;9.54;100.00
23170;BME280;11753;43.144;24.714;2023-04-20T03:21:14;99153.88;;;9.34;100.00
23170;BME280;11753;43.144;24.714;2023-04-20T03:22:16;99152.25;;;9.33;100.00
23170;BME280;11753;43.144;24.714;2023-04-20T03:23:18;99149.25;;;9.28;100.00
23170;BME280;11753;43.144;24.714;2023-04-20T03:24:19;99156.50;;;9.34;100.00
23170;BME280;11753;43.144;24.714;2023-04-20T03:25:20;99153.06;;;9.34;100.00
23170;BME280;11753;43.144;24.714;2023-04-20T03:26:20;99158.16;;;9.35;100.00
23170;BME280;11753;43.144;24.714;2023-04-20T03:27:21;99152.09;;;9.35;100.00
23170;BME280;11753;43.144;24.714;2023-04-20T03:28:22;99142.72;;;9.32;100.00
23170;BME280;11753;43.144;24.714;2023-04-20T03:29:23;99145.00;;;9.27;100.00
23170;BME280;11753;43.144;24.714;2023-04-20T03:30:24;99151.22;;;9.26;100.00
23170;BME280;11753;43.144;24.714;2023-04-20T03:31:25;99148.59;;;9.26;100.00
23170;BME280;11753;43.144;24.714;2023-04-20T03:32:26;99147.91;;;9.16;100.00
23170;BME280;11753;43.144;24.714;2023-04-20T03:33:27;99147.41;;;9.21;100.00
23170;BME280;11753;43.144;24.714;2023-04-20T03:34:28;99154.25;;;9.14;100.00
23170;BME280;11753;43.144;24.714;2023-04-20T03:35:29;99146.91;;;9.17;100.00
23170;BME280;11753;43.144;24.714;2023-04-20T03:36:30;99149.75;;;8.98;100.00
23170;BME280;11753;43.144;24.714;2023-04-20T03:37:32;99147.28;;;8.96;100.00
23170;BME280;11753;43.144;24.714;2023-04-20T03:38:32;99151.81;;;8.86;100.00
23170;BME280;11753;43.144;24.714;2023-04-20T03:39:33;99146.69;;;8.85;100.00
23170;BME280;11753;43.144;24.714;2023-04-20T03:40:34;99150.00;;;8.87;100.00
23170;BME280;11753;43.144;24.714;2023-04-20T03:41:35;99152.31;;;8.90;100.00
23170;BME280;11753;43.144;24.714;2023-04-20T03:42:35;99150.34;;;8.92;100.00
23170;BME280;11753;43.144;24.714;2023-04-20T03:43:39;99146.75;;;8.93;100.00
23170;BME280;11753;43.144;24.714;2023-04-20T03:44:43;99154.16;;;8.97;100.00
23170;BME280;11753;43.144;24.714;2023-04-20T03:45:44;99155.66;;;9.00;100.00
23170;BME280;11753;43.144;24.714;2023-04-20T03:46:45;99159.31;;;9.07;100.00
23170;BME280;11753;43.144;24.714;2023-04-20T03:47:46;99161.47;;;9.12;100.00
23170;BME280;11753;43.144;24.714;2023-04-20T03:48:48;99162.31;;;9.12;100.00
23170;BME280;11753;43.144;24.714;2023-04-20T03:49:49;99164.16;;;9.20;100.00
23170;BME280;11753;43.144;24.714;2023-04-20T03:50:50;99155.41;;;9.11;100.00
23170;BME280;11753;43.144;24.714;2023-04-20T03:51:51;99159.50;;;9.14;100.00
23170;BME280;11753;43.144;24.714;2023-04-20T03:52:52;99157.72;;;9.14;100.00
23170;BME280;11753;43.144;24.714;2023-04-20T03:53:52;99158.19;;;9.09;99.78
23170;BME280;11753;43.144;24.714;2023-04-20T03:54:53;99157.06;;;9.12;99.05
23170;BME280;11753;43.144;24.714;2023-04-20T03:55:53;99153.44;;;9.13;98.84
23170;BME280;11753;43.144;24.714;2023-04-20T03:56:55;99151.50;;;9.15;99.31
23170;BME280;11753;43.144;24.714;2023-04-20T03:57:55;99159.69;;;9.12;99.59
23170;BME280;11753;43.144;24.714;2023-04-20T03:58:56;99156.75;;;9.15;100.00
23170;BME280;11753;43.144;24.714;2023-04-20T03:59:57;99153.81;;;9.18;100.00
23170;BME280;11753;43.144;24.714;2023-04-20T04:01:06;99162.31;;;9.12;100.00
23170;BME280;11753;43.144;24.714;2023-04-20T04:02:07;99153.97;;;9.17;100.00
23170;BME280;11753;43.144;24.714;2023-04-20T04:03:10;99164.97;;;9.20;100.00
23170;BME280;11753;43.144;24.714;2023-04-20T04:04:11;99161.38;;;9.21;100.00
23170;BME280;11753;43.144;24.714;2023-04-20T04:05:12;99156.44;;;9.18;100.00
23170;BME280;11753;43.144;24.714;2023-04-20T04:06:13;99161.06;;;9.24;100.00
23170;BME280;11753;43.144;24.714;2023-04-20T04:07:15;99160.91;;;9.26;100.00
23170;BME280;11753;43.144;24.714;2023-04-20T04:08:16;99161.88;;;9.25;100.00
23170;BME280;11753;43.144;24.714;2023-04-20T04:09:17;99161.72;;;9.26;100.00
23170;BME280;11753;43.144;24.714;2023-04-20T04:10:18;99160.66;;;9.37;100.00
23170;BME280;11753;43.144;24.714;2023-04-20T04:11:19;99164.06;;;9.29;100.00
23170;BME280;11753;43.144;24.714;2023-04-20T04:12:20;99163.56;;;9.34;100.00
23170;BME280;11753;43.144;24.714;2023-04-20T04:13:20;99165.19;;;9.27;100.00
23170;BME280;11753;43.144;24.714;2023-04-20T04:14:21;99166.81;;;9.28;100.00
23170;BME280;11753;43.144;24.714;2023-04-20T04:15:22;99164.06;;;9.29;100.00
23170;BME280;11753;43.144;24.714;2023-04-20T04:16:24;99169.78;;;9.25;100.00
23170;BME280;11753;43.144;24.714;2023-04-20T04:17:25;99162.75;;;9.33;100.00
23170;BME280;11753;43.144;24.714;2023-04-20T04:18:30;99168.38;;;9.38;100.00
23170;BME280;11753;43.144;24.714;2023-04-20T04:19:32;99164.13;;;9.46;100.00
23170;BME280;11753;43.144;24.714;2023-04-20T04:20:33;99171.03;;;9.47;100.00
23170;BME280;11753;43.144;24.714;2023-04-20T04:21:34;99164.63;;;9.49;100.00
23170;BME280;11753;43.144;24.714;2023-04-20T04:22:35;99167.63;;;9.54;100.00
23170;BME280;11753;43.144;24.714;2023-04-20T04:23:36;99167.31;;;9.57;100.00
23170;BME280;11753;43.144;24.714;2023-04-20T04:24:37;99159.91;;;9.53;100.00
23170;BME280;11753;43.144;24.714;2023-04-20T04:25:38;99166.47;;;9.57;100.00
23170;BME280;11753;43.144;24.714;2023-04-20T04:26:39;99173.72;;;9.63;100.00
23170;BME280;11753;43.144;24.714;2023-04-20T04:27:40;99174.91;;;9.69;100.00
23170;BME280;11753;43.144;24.714;2023-04-20T04:28:41;99176.34;;;9.63;100.00
23170;BME280;11753;43.144;24.714;2023-04-20T04:29:41;99177.03;;;9.65;100.00
23170;BME280;11753;43.144;24.714;2023-04-20T04:30:45;99171.28;;;9.70;100.00
23170;BME280;11753;43.144;24.714;2023-04-20T04:31:46;99175.25;;;9.74;100.00
23170;BME280;11753;43.144;24.714;2023-04-20T04:32:47;99178.09;;;9.80;100.00
23170;BME280;11753;43.144;24.714;2023-04-20T04:33:49;99178.41;;;9.85;100.00
23170;BME280;11753;43.144;24.714;2023-04-20T04:34:50;99186.47;;;9.92;100.00
23170;BME280;11753;43.144;24.714;2023-04-20T04:35:52;99188.16;;;9.93;100.00
23170;BME280;11753;43.144;24.714;2023-04-20T04:36:54;99185.84;;;9.98;100.00
23170;BME280;11753;43.144;24.714;2023-04-20T04:37:56;99180.28;;;10.01;99.90
23170;BME280;11753;43.144;24.714;2023-04-20T04:38:56;99187.19;;;10.02;99.76
23170;BME280;11753;43.144;24.714;2023-04-20T04:39:57;99188.50;;;10.06;99.38
23170;BME280;11753;43.144;24.714;2023-04-20T04:40:58;99182.13;;;10.09;99.05
23170;BME280;11753;43.144;24.714;2023-04-20T04:42:00;99182.59;;;10.12;98.81
23170;BME280;11753;43.144;24.714;2023-04-20T04:43:01;99186.06;;;10.13;98.70
23170;BME280;11753;43.144;24.714;2023-04-20T04:44:03;99183.13;;;10.16;98.79
23170;BME280;11753;43.144;24.714;2023-04-20T04:45:05;99181.16;;;10.18;98.26
23170;BME280;11753;43.144;24.714;2023-04-20T04:46:07;99190.25;;;10.24;98.23
23170;BME280;11753;43.144;24.714;2023-04-20T04:47:09;99188.25;;;10.26;98.22
23170;BME280;11753;43.144;24.714;2023-04-20T04:48:11;99189.41;;;10.23;97.87
23170;BME280;11753;43.144;24.714;2023-04-20T04:49:13;99190.72;;;10.27;97.73
23170;BME280;11753;43.144;24.714;2023-04-20T04:50:14;99187.09;;;10.28;97.72
23170;BME280;11753;43.144;24.714;2023-04-20T04:51:15;99194.22;;;10.36;97.32
23170;BME280;11753;43.144;24.714;2023-04-20T04:52:16;99195.03;;;10.36;97.44
23170;BME280;11753;43.144;24.714;2023-04-20T04:53:17;99193.41;;;10.43;97.31
23170;BME280;11753;43.144;24.714;2023-04-20T04:54:18;99184.34;;;10.38;96.99
23170;BME280;11753;43.144;24.714;2023-04-20T04:55:18;99186.81;;;10.47;97.19
23170;BME280;11753;43.144;24.714;2023-04-20T04:56:20;99191.41;;;10.45;97.24
23170;BME280;11753;43.144;24.714;2023-04-20T04:57:21;99189.44;;;10.56;97.02
23170;BME280;11753;43.144;24.714;2023-04-20T04:58:22;99194.06;;;10.62;96.97
23170;BME280;11753;43.144;24.714;2023-04-20T04:59:23;99188.50;;;10.65;96.72
23170;BME280;11753;43.144;24.714;2023-04-20T05:00:24;99183.06;;;10.74;96.32
23170;BME280;11753;43.144;24.714;2023-04-20T05:01:25;99192.75;;;10.82;96.22
23170;BME280;11753;43.144;24.714;2023-04-20T05:02:26;99187.81;;;10.87;95.97
23170;BME280;11753;43.144;24.714;2023-04-20T05:03:26;99187.81;;;10.87;95.63
23170;BME280;11753;43.144;24.714;2023-04-20T05:04:27;99197.03;;;10.91;95.36
23170;BME280;11753;43.144;24.714;2023-04-20T05:05:28;99197.00;;;10.99;94.45
23170;BME280;11753;43.144;24.714;2023-04-20T05:06:28;99192.09;;;10.96;94.36
23170;BME280;11753;43.144;24.714;2023-04-20T05:07:30;99190.44;;;10.95;94.63
23170;BME280;11753;43.144;24.714;2023-04-20T05:08:31;99191.44;;;11.02;94.38
23170;BME280;11753;43.144;24.714;2023-04-20T05:09:32;99191.91;;;11.06;94.16
23170;BME280;11753;43.144;24.714;2023-04-20T05:10:33;99192.06;;;11.13;94.32
23170;BME280;11753;43.144;24.714;2023-04-20T05:11:34;99195.03;;;11.18;94.38
23170;BME280;11753;43.144;24.714;2023-04-20T05:12:35;99195.66;;;11.20;94.08
23170;BME280;11753;43.144;24.714;2023-04-20T05:13:36;99197.69;;;11.10;93.87
23170;BME280;11753;43.144;24.714;2023-04-20T05:14:36;99191.75;;;11.16;93.95
23170;BME280;11753;43.144;24.714;2023-04-20T05:15:37;99193.53;;;11.23;93.79
23170;BME280;11753;43.144;24.714;2023-04-20T05:16:39;99197.31;;;11.29;93.57
23170;BME280;11753;43.144;24.714;2023-04-20T05:17:40;99194.00;;;11.35;93.39
23170;BME280;11753;43.144;24.714;2023-04-20T05:18:41;99184.28;;;11.36;92.83
23170;BME280;11753;43.144;24.714;2023-04-20T05:19:41;99186.22;;;11.42;92.69
23170;BME280;11753;43.144;24.714;2023-04-20T05:20:42;99187.56;;;11.46;92.49